Time;durP1;ratioP1;P1;durP2;ratioP2;P2;SDS_P1;SDS_P2;PMS_P1;PMS_P2;Temp;Humidity;BMP_temperature;BMP_pressure;BME280_temperature;BME280_humidity;BME280_pressure;Samples;Min_cycle;Max_cycle;Signal;HPM_P1;HPM_P2
2023/05/01 00:01:32;;;;;;;15.90;9.00;;;;;;;4.77;67.46;99079.23;105118;1273;97868;-71
2023/05/01 00:04:00;;;;;;;20.80;9.00;;;;;;;4.71;67.82;99079.52;105072;1257;97894;-73
2023/05/01 00:06:27;;;;;;;18.80;10.20;;;;;;;4.62;68.11;99075.14;104911;1260;96662;-71
2023/05/01 00:08:54;;;;;;;18.40;10.10;;;;;;;4.55;68.73;99076.12;105103;1257;97457;-77
2023/05/01 00:11:21;;;;;;;20.00;11.90;;;;;;;4.46;69.02;99077.34;105088;1257;96581;-71
2023/05/01 00:13:49;;;;;;;21.50;11.90;;;;;;;4.40;69.22;99078.02;105128;1253;96640;-71
2023/05/01 00:16:16;;;;;;;22.40;12.80;;;;;;;4.32;69.51;99072.86;105149;1254;97003;-71
2023/05/01 00:18:44;;;;;;;29.40;14.90;;;;;;;4.22;70.08;99076.38;105158;1257;97239;-71
2023/05/01 00:21:11;;;;;;;30.00;15.00;;;;;;;4.12;70.26;99071.10;105201;1257;96552;-71
2023/05/01 00:23:38;;;;;;;29.70;15.10;;;;;;;4.07;70.64;99069.48;105130;1257;96665;-70
2023/05/01 00:26:06;;;;;;;29.50;14.30;;;;;;;4.06;70.61;99067.86;105120;1268;97023;-70
2023/05/01 00:28:33;;;;;;;29.10;14.60;;;;;;;4.05;70.45;99066.48;105209;1253;96555;-72
2023/05/01 00:31:01;;;;;;;27.00;14.90;;;;;;;4.03;70.34;99063.45;105099;1255;97868;-69
2023/05/01 00:33:28;;;;;;;26.00;12.90;;;;;;;4.01;70.85;99063.80;105180;1256;96536;-70
2023/05/01 00:35:55;;;;;;;23.40;12.20;;;;;;;3.99;70.77;99063.36;105132;1258;96667;-70
2023/05/01 00:38:23;;;;;;;20.40;11.30;;;;;;;3.99;70.68;99063.31;105091;1257;96660;-70
2023/05/01 00:40:50;;;;;;;23.90;11.30;;;;;;;3.99;70.96;99063.86;105093;1260;98244;-69
2023/05/01 00:43:17;;;;;;;20.50;10.90;;;;;;;3.98;70.95;99058.81;105222;1259;96615;-70
2023/05/01 00:45:45;;;;;;;22.90;11.40;;;;;;;4.00;71.03;99057.45;105164;1260;97865;-70
2023/05/01 00:48:13;;;;;;;19.70;10.00;;;;;;;4.04;71.20;99055.85;105157;1258;96581;-70
2023/05/01 00:50:42;;;;;;;23.50;10.80;;;;;;;4.08;71.27;99057.08;105151;1257;97495;-70
2023/05/01 00:53:10;;;;;;;21.80;10.40;;;;;;;4.10;71.24;99055.80;105180;1258;96622;-70
2023/05/01 00:55:40;;;;;;;19.90;11.10;;;;;;;4.07;71.59;99055.23;105092;1255;110775;-70
2023/05/01 00:58:09;;;;;;;27.80;13.00;;;;;;;4.05;71.61;99054.84;104933;1269;99168;-69
2023/05/01 01:00:36;;;;;;;22.70;11.20;;;;;;;4.00;71.89;99049.10;104996;1267;108546;-70
2023/05/01 01:03:04;;;;;;;24.00;11.80;;;;;;;3.82;72.17;99047.07;105165;1259;96568;-74
2023/05/01 01:05:39;;;;;;;24.00;11.60;;;;;;;3.67;72.66;99045.44;105153;1254;97448;-76
2023/05/01 01:08:21;;;;;;;25.40;12.60;;;;;;;3.57;73.04;99040.70;105056;1254;110910;-71
2023/05/01 01:10:58;;;;;;;26.90;12.50;;;;;;;3.46;73.43;99041.45;105115;1259;99223;-70
2023/05/01 01:13:35;;;;;;;28.40;13.00;;;;;;;3.35;73.75;99041.21;105096;1260;108606;-69
2023/05/01 01:16:31;;;;;;;28.50;13.90;;;;;;;3.27;73.85;99037.65;105084;1254;97570;-69
2023/05/01 01:19:24;;;;;;;34.40;15.60;;;;;;;3.20;74.25;99035.70;105143;1270;97768;-69
2023/05/01 01:21:57;;;;;;;31.60;15.30;;;;;;;3.17;73.93;99031.66;105133;1257;110879;-69
2023/05/01 01:24:56;;;;;;;32.60;16.40;;;;;;;3.13;73.97;99033.95;105141;1267;99208;-69
2023/05/01 01:27:51;;;;;;;29.90;17.40;;;;;;;3.11;74.55;99029.91;105077;1255;108844;-68
2023/05/01 01:30:24;;;;;;;29.40;14.50;;;;;;;3.14;74.18;99029.19;105011;1254;96584;-69
2023/05/01 01:33:29;;;;;;;28.00;14.90;;;;;;;3.21;74.50;99027.80;105142;1267;97785;-71
2023/05/01 01:36:06;;;;;;;25.50;13.80;;;;;;;3.30;74.55;99023.65;104954;1260;110177;-71
2023/05/01 01:38:41;;;;;;;28.00;13.20;;;;;;;3.36;73.89;99026.31;105111;1258;99366;-70
2023/05/01 01:41:20;;;;;;;25.00;12.60;;;;;;;3.32;74.08;99025.35;105088;1257;107516;-70
2023/05/01 01:43:57;;;;;;;31.30;12.60;;;;;;;3.29;74.28;99022.56;105019;1257;97467;-71
2023/05/01 01:46:25;;;;;;;26.70;12.50;;;;;;;3.23;74.37;99024.34;105069;1259;96772;-70
2023/05/01 01:48:56;;;;;;;20.30;11.20;;;;;;;3.16;74.32;99024.66;105197;1254;111551;-70
2023/05/01 01:51:25;;;;;;;27.50;12.10;;;;;;;3.09;74.35;99020.63;105006;1257;99146;-70
2023/05/01 01:53:57;;;;;;;23.40;11.70;;;;;;;3.00;74.62;99015.50;104961;1258;108348;-70
2023/05/01 01:56:27;;;;;;;25.80;12.10;;;;;;;2.99;74.75;99014.58;104996;1261;97417;-70
2023/05/01 01:58:55;;;;;;;23.50;12.20;;;;;;;3.02;74.85;99015.58;105060;1258;96571;-70
2023/05/01 02:01:24;;;;;;;24.90;12.50;;;;;;;3.00;74.86;99017.98;105098;1258;110886;-70
2023/05/01 02:03:53;;;;;;;23.60;12.10;;;;;;;2.92;74.78;99013.42;105032;1258;99161;-71
2023/05/01 02:06:23;;;;;;;25.40;13.10;;;;;;;2.85;74.97;99012.69;104959;1258;108610;-71
2023/05/01 02:08:52;;;;;;;26.70;13.70;;;;;;;2.77;75.31;99007.07;105100;1258;96705;-71
2023/05/01 02:11:21;;;;;;;29.10;14.20;;;;;;;2.66;75.80;98998.73;105117;1260;96648;-71
2023/05/01 02:13:50;;;;;;;29.00;14.50;;;;;;;2.61;75.90;99000.13;104949;1257;111893;-71
2023/05/01 02:16:19;;;;;;;28.40;15.20;;;;;;;2.59;76.27;99001.52;105047;1254;99138;-71
2023/05/01 02:18:47;;;;;;;32.70;15.00;;;;;;;2.57;76.41;99001.44;105014;1260;107683;-71
2023/05/01 02:21:15;;;;;;;25.70;14.50;;;;;;;2.56;76.25;98998.83;105014;1257;96654;-72
2023/05/01 02:23:42;;;;;;;23.20;13.30;;;;;;;2.59;76.07;98995.88;104987;1260;96960;-72
2023/05/01 02:26:15;;;;;;;24.30;12.40;;;;;;;2.64;76.07;98994.32;105054;1258;96581;-72
2023/05/01 02:28:43;;;;;;;23.70;12.40;;;;;;;2.71;75.92;98992.07;105115;1259;99070;-75
2023/05/01 02:31:10;;;;;;;24.00;12.50;;;;;;;2.74;75.88;98992.20;105127;1254;97875;-71
2023/05/01 02:33:37;;;;;;;24.20;12.90;;;;;;;2.76;75.72;98991.52;105058;1260;96562;-70
2023/05/01 02:36:05;;;;;;;25.20;13.60;;;;;;;2.74;75.85;98989.65;105030;1254;96568;-71
2023/05/01 02:38:32;;;;;;;21.70;12.60;;;;;;;2.66;75.89;98991.52;104953;1257;96568;-71
2023/05/01 02:41:00;;;;;;;23.70;12.30;;;;;;;2.66;75.93;98992.13;105158;1257;96552;-71
2023/05/01 02:43:31;;;;;;;24.40;12.10;;;;;;;2.63;75.71;98990.79;105243;1269;108696;-71
2023/05/01 02:45:59;;;;;;;29.00;13.30;;;;;;;2.51;76.02;98985.73;105079;1254;96686;-70
2023/05/01 02:48:27;;;;;;;24.70;12.80;;;;;;;2.46;75.84;98988.54;104990;1261;97560;-72
2023/05/01 02:50:56;;;;;;;24.40;12.30;;;;;;;2.44;76.17;98986.02;105158;1258;109732;-71
2023/05/01 02:53:23;;;;;;;25.80;12.90;;;;;;;2.40;76.26;98981.86;105154;1254;99216;-72
2023/05/01 02:55:50;;;;;;;22.10;12.00;;;;;;;2.33;76.16;98981.77;104991;1254;96591;-70
2023/05/01 02:58:19;;;;;;;23.00;11.90;;;;;;;2.31;76.32;98982.98;104900;1257;96621;-71
2023/05/01 03:00:48;;;;;;;27.10;12.80;;;;;;;2.30;76.20;98982.70;105019;1254;97750;-71
2023/05/01 03:03:16;;;;;;;28.70;14.60;;;;;;;2.27;76.05;98978.95;104876;1263;110509;-69
2023/05/01 03:05:43;;;;;;;29.90;14.50;;;;;;;2.25;76.26;98978.74;104988;1263;99072;-71
2023/05/01 03:08:11;;;;;;;26.00;14.70;;;;;;;2.28;76.58;98980.79;105123;1259;97868;-70
2023/05/01 03:10:41;;;;;;;24.70;13.20;;;;;;;2.24;76.85;98981.11;104977;1259;97875;-69
2023/05/01 03:13:10;;;;;;;28.40;13.50;;;;;;;2.19;77.39;98976.83;105027;1254;97957;-70
2023/05/01 03:15:38;;;;;;;24.10;12.30;;;;;;;2.21;77.27;98975.40;105158;1259;110788;-71
2023/05/01 03:18:05;;;;;;;24.80;12.20;;;;;;;2.26;76.83;98974.55;104960;1255;99099;-72
2023/05/01 03:20:32;;;;;;;23.20;11.40;;;;;;;2.24;77.06;98970.19;105018;1259;108539;-72
2023/05/01 03:23:00;;;;;;;22.40;11.00;;;;;;;2.20;77.12;98967.16;105109;1259;96570;-72
2023/05/01 03:25:27;;;;;;;23.50;10.80;;;;;;;2.17;77.29;98966.47;105119;1260;96478;-72
2023/05/01 03:27:54;;;;;;;20.10;10.20;;;;;;;2.13;77.17;98960.82;105139;1260;97838;-71
2023/05/01 03:30:21;;;;;;;26.40;12.10;;;;;;;2.17;76.89;98959.83;105050;1254;98300;-69
2023/05/01 03:32:48;;;;;;;24.60;12.30;;;;;;;2.22;77.08;98955.83;105017;1259;96571;-72
2023/05/01 03:35:15;;;;;;;25.30;12.80;;;;;;;2.26;76.77;98960.98;105041;1256;96644;-72
2023/05/01 03:37:42;;;;;;;27.70;12.00;;;;;;;2.27;76.55;98961.69;105121;1260;96707;-71
2023/05/01 03:40:12;;;;;;;21.90;11.70;;;;;;;2.29;76.22;98961.61;104990;1260;97730;-72
2023/05/01 03:42:39;;;;;;;20.50;10.70;;;;;;;2.30;76.20;98961.83;105086;1258;99274;-72
2023/05/01 03:45:07;;;;;;;23.60;11.60;;;;;;;2.28;75.95;98958.13;105066;1254;96584;-72
2023/05/01 03:47:34;;;;;;;132.20;38.70;;;;;;;2.25;75.88;98956.73;105121;1260;96560;-75
2023/05/01 03:50:02;;;;;;;84.50;33.50;;;;;;;2.24;76.15;98955.49;105155;1259;96717;-75
2023/05/01 03:52:29;;;;;;;48.30;19.10;;;;;;;2.24;76.30;98956.52;105187;1267;96497;-70
2023/05/01 03:54:57;;;;;;;29.10;14.00;;;;;;;2.29;76.28;98955.87;105261;1260;99074;-71
2023/05/01 03:57:23;;;;;;;25.70;12.90;;;;;;;2.37;76.34;98955.80;105140;1258;96683;-70
2023/05/01 03:59:50;;;;;;;34.90;17.40;;;;;;;2.50;76.17;98958.92;105091;1267;97484;-72
2023/05/01 04:02:18;;;;;;;35.60;16.30;;;;;;;2.68;75.99;98961.14;105047;1260;97920;-72
2023/05/01 04:04:45;;;;;;;34.00;16.60;;;;;;;2.88;76.12;98959.23;105019;1254;97893;-72
2023/05/01 04:07:13;;;;;;;26.80;14.50;;;;;;;3.07;77.01;98958.98;104945;1268;97775;-69
2023/05/01 04:09:40;;;;;;;25.70;13.20;;;;;;;3.26;76.82;98958.05;105215;1254;96589;-71
2023/05/01 04:12:07;;;;;;;29.10;13.30;;;;;;;3.38;76.73;98956.21;104996;1260;97848;-69
2023/05/01 04:14:34;;;;;;;25.00;13.10;;;;;;;3.53;76.46;98956.32;105019;1254;97007;-73
2023/05/01 04:17:02;;;;;;;25.10;11.90;;;;;;;3.71;76.43;98953.84;105155;1258;96599;-73
2023/05/01 04:19:29;;;;;;;19.10;9.50;;;;;;;3.85;75.24;98954.54;105138;1258;97006;-72
2023/05/01 04:21:56;;;;;;;20.30;10.10;;;;;;;3.96;73.91;98952.31;105097;1258;96584;-73
2023/05/01 04:24:23;;;;;;;21.30;10.60;;;;;;;4.10;73.38;98955.97;105035;1273;96567;-74
2023/05/01 04:26:50;;;;;;;21.80;10.40;;;;;;;4.24;72.72;98958.81;105193;1254;97467;-72
2023/05/01 04:29:17;;;;;;;19.10;9.90;;;;;;;4.39;72.37;98959.09;105094;1267;97073;-72
2023/05/01 04:31:44;;;;;;;18.20;9.50;;;;;;;4.57;71.84;98956.98;105053;1270;108437;-72
2023/05/01 04:34:11;;;;;;;18.40;8.80;;;;;;;4.68;70.87;98959.56;105091;1254;96587;-75
2023/05/01 04:36:38;;;;;;;20.70;9.60;;;;;;;4.77;70.48;98957.54;105104;1257;96576;-74
2023/05/01 04:39:05;;;;;;;18.70;9.40;;;;;;;4.90;70.30;98961.36;105134;1260;97695;-74
2023/05/01 04:41:32;;;;;;;15.30;8.00;;;;;;;5.04;69.95;98962.14;105130;1260;96488;-74
2023/05/01 04:44:00;;;;;;;17.30;8.00;;;;;;;5.18;69.66;98961.23;105172;1260;96596;-74
2023/05/01 04:46:26;;;;;;;18.20;8.80;;;;;;;5.31;68.97;98961.26;105178;1268;96956;-73
2023/05/01 04:48:53;;;;;;;14.10;7.80;;;;;;;5.45;69.15;98961.46;104934;1257;96589;-75
2023/05/01 04:51:21;;;;;;;18.10;9.20;;;;;;;5.56;67.29;98959.52;104975;1259;96580;-74
2023/05/01 04:53:48;;;;;;;16.10;8.80;;;;;;;5.62;67.37;98959.27;105252;1269;97776;-70
2023/05/01 04:56:15;;;;;;;15.60;8.10;;;;;;;5.72;66.92;98961.06;105721;1263;96750;-74
2023/05/01 04:58:42;;;;;;;16.30;8.60;;;;;;;5.78;66.86;98957.36;104995;1257;96634;-74
2023/05/01 05:01:09;;;;;;;17.60;9.10;;;;;;;5.89;66.33;98960.66;105043;1258;96575;-74
2023/05/01 05:03:37;;;;;;;15.70;8.50;;;;;;;5.95;66.46;98961.69;105018;1267;96569;-73
2023/05/01 05:06:04;;;;;;;19.70;8.70;;;;;;;6.04;66.15;98957.33;105037;1260;96987;-74
2023/05/01 05:08:31;;;;;;;15.80;8.10;;;;;;;6.12;65.59;98958.31;104956;1260;96603;-75
2023/05/01 05:10:59;;;;;;;17.10;8.50;;;;;;;6.22;66.13;98964.59;104912;1260;96578;-70
2023/05/01 05:13:27;;;;;;;16.50;10.00;;;;;;;6.34;65.24;98965.73;105004;1264;96633;-73
2023/05/01 05:15:54;;;;;;;22.70;10.20;;;;;;;6.44;65.40;98964.39;105141;1259;99102;-71
2023/05/01 05:18:21;;;;;;;16.90;8.80;;;;;;;6.56;65.45;98964.40;105060;1260;96535;-72
2023/05/01 05:20:49;;;;;;;18.60;10.00;;;;;;;6.62;64.66;98961.27;105001;1260;96628;-70
2023/05/01 05:23:16;;;;;;;17.00;9.50;;;;;;;6.71;65.38;98959.09;105032;1254;96568;-70
2023/05/01 05:25:43;;;;;;;13.50;8.70;;;;;;;6.88;65.02;98962.23;105017;1254;96564;-68
2023/05/01 05:28:10;;;;;;;15.20;8.20;;;;;;;7.02;64.79;98960.61;104987;1260;96562;-70
2023/05/01 05:30:37;;;;;;;12.00;8.00;;;;;;;7.13;64.18;98958.30;105874;1254;96565;-72
2023/05/01 05:33:07;;;;;;;14.20;8.70;;;;;;;7.27;63.76;98953.79;105017;1260;96498;-73
2023/05/01 05:35:35;;;;;;;18.00;9.70;;;;;;;7.42;63.28;98953.02;104955;1258;97891;-69
2023/05/01 05:38:02;;;;;;;12.50;7.50;;;;;;;7.58;63.47;98956.25;104913;1259;110886;-72
2023/05/01 05:40:29;;;;;;;13.30;8.30;;;;;;;7.72;62.97;98956.40;105083;1260;96660;-72
2023/05/01 05:42:56;;;;;;;15.40;8.30;;;;;;;7.85;62.41;98956.51;105025;1259;96625;-72
2023/05/01 05:45:23;;;;;;;14.60;7.40;;;;;;;7.91;61.50;98951.31;105067;1258;97595;-73
2023/05/01 05:47:50;;;;;;;13.90;8.20;;;;;;;8.04;61.93;98951.39;105088;1254;97480;-73
2023/05/01 05:50:17;;;;;;;11.50;6.50;;;;;;;8.32;62.47;98947.38;105146;1260;97474;-73
2023/05/01 05:52:44;;;;;;;9.80;5.70;;;;;;;8.56;60.17;98945.14;104932;1260;96585;-73
2023/05/01 05:55:11;;;;;;;12.40;7.40;;;;;;;8.62;59.79;98944.95;105027;1259;96593;-74
2023/05/01 05:57:38;;;;;;;9.90;5.00;;;;;;;8.85;59.74;98944.80;105087;1254;96619;-73
2023/05/01 06:00:08;;;;;;;11.50;5.70;;;;;;;9.01;57.26;98940.92;105038;1258;110874;-71
2023/05/01 06:02:35;;;;;;;8.20;5.20;;;;;;;9.09;56.73;98949.77;105123;1273;99181;-73
2023/05/01 06:05:03;;;;;;;9.80;5.20;;;;;;;9.17;55.31;98943.25;105132;1259;108551;-73
2023/05/01 06:07:30;;;;;;;9.60;5.20;;;;;;;9.25;56.06;98943.29;105013;1254;96645;-72
2023/05/01 06:10:03;;;;;;;8.10;4.50;;;;;;;9.39;55.12;98943.83;105034;1260;96570;-73
2023/05/01 06:12:30;;;;;;;7.30;4.40;;;;;;;9.59;55.66;98935.52;104739;1263;110509;-71
2023/05/01 06:14:58;;;;;;;8.70;3.70;;;;;;;9.82;54.38;98939.05;105106;1259;100280;-73
2023/05/01 06:17:26;;;;;;;7.60;4.60;;;;;;;9.92;54.47;98940.08;104897;1259;96647;-71
2023/05/01 06:19:53;;;;;;;9.70;4.90;;;;;;;10.07;53.64;98941.71;104955;1260;97885;-72
2023/05/01 06:22:20;;;;;;;6.40;3.90;;;;;;;10.18;53.56;98944.67;104979;1254;96580;-71
2023/05/01 06:24:47;;;;;;;7.40;4.50;;;;;;;10.29;52.72;98942.77;105263;1254;96667;-72
2023/05/01 06:27:15;;;;;;;4.50;3.40;;;;;;;10.40;51.58;98942.45;104976;1259;96657;-71
2023/05/01 06:29:47;;;;;;;6.10;3.50;;;;;;;10.56;50.68;98939.35;104702;1261;108052;-75
2023/05/01 06:32:22;;;;;;;7.40;4.00;;;;;;;10.59;48.82;98944.11;104935;1260;96539;-73
2023/05/01 06:34:49;;;;;;;8.10;3.60;;;;;;;10.64;49.30;98944.27;105056;1259;97873;-72
2023/05/01 06:37:17;;;;;;;7.40;3.80;;;;;;;10.70;48.13;98942.05;105070;1254;96579;-72
2023/05/01 06:39:44;;;;;;;5.70;3.90;;;;;;;10.70;47.98;98937.83;104991;1264;96585;-72
2023/05/01 06:42:14;;;;;;;8.50;3.70;;;;;;;10.74;48.89;98940.87;104908;1267;97880;-72
2023/05/01 06:44:42;;;;;;;7.00;3.90;;;;;;;10.89;49.38;98937.69;105045;1269;96578;-72
2023/05/01 06:47:09;;;;;;;7.30;3.90;;;;;;;11.06;47.69;98939.96;105305;1256;96634;-73
2023/05/01 06:49:37;;;;;;;7.80;3.30;;;;;;;11.19;48.70;98938.87;104989;1260;96657;-73
2023/05/01 06:52:04;;;;;;;6.90;3.60;;;;;;;11.30;47.56;98937.57;105011;1264;96567;-74
2023/05/01 06:54:31;;;;;;;7.90;4.10;;;;;;;11.32;48.10;98938.90;104868;1267;96670;-72
2023/05/01 06:56:58;;;;;;;5.10;3.20;;;;;;;11.46;47.58;98933.73;105008;1259;97478;-74
2023/05/01 06:59:25;;;;;;;6.70;3.60;;;;;;;11.55;47.24;98929.33;105043;1254;97144;-73
2023/05/01 07:01:52;;;;;;;12.20;4.60;;;;;;;11.74;47.53;98928.31;104989;1254;97231;-71
2023/05/01 07:04:19;;;;;;;6.00;3.60;;;;;;;11.94;46.63;98923.55;104971;1260;97892;-71
2023/05/01 07:06:46;;;;;;;7.00;3.70;;;;;;;12.04;45.04;98927.58;105009;1259;97866;-71
2023/05/01 07:09:14;;;;;;;6.60;3.70;;;;;;;12.09;45.39;98923.72;105010;1260;96546;-69
2023/05/01 07:11:41;;;;;;;7.20;2.70;;;;;;;12.22;45.51;98922.89;104995;1259;96649;-72
2023/05/01 07:14:08;;;;;;;5.10;3.00;;;;;;;12.36;44.15;98919.41;105052;1260;96559;-68
2023/05/01 07:16:35;;;;;;;6.50;3.10;;;;;;;12.53;43.22;98919.08;105104;1254;96673;-71
2023/05/01 07:19:02;;;;;;;6.40;3.00;;;;;;;12.58;42.92;98916.24;104923;1267;97532;-72
2023/05/01 07:21:31;;;;;;;4.90;2.80;;;;;;;12.70;43.08;98916.50;104971;1257;97869;-71
2023/05/01 07:23:58;;;;;;;7.70;2.50;;;;;;;12.95;42.86;98917.55;104987;1260;111034;-72
2023/05/01 07:26:26;;;;;;;3.30;2.00;;;;;;;13.11;41.17;98919.20;104960;1254;96577;-72
2023/05/01 07:28:53;;;;;;;3.90;2.50;;;;;;;12.88;40.28;98921.98;105070;1260;108146;-71
2023/05/01 07:31:21;;;;;;;4.50;2.30;;;;;;;12.83;40.74;98921.88;104873;1260;96522;-72
2023/05/01 07:33:48;;;;;;;5.20;2.60;;;;;;;12.96;40.98;98919.33;105041;1260;97193;-73
2023/05/01 07:36:19;;;;;;;5.00;2.40;;;;;;;13.12;40.28;98917.19;105118;1268;111180;-72
2023/05/01 07:38:47;;;;;;;4.60;2.50;;;;;;;13.36;39.90;98920.05;105104;1259;99412;-72
2023/05/01 07:41:14;;;;;;;3.50;1.90;;;;;;;13.57;39.15;98916.26;105071;1258;108635;-72
2023/05/01 07:43:41;;;;;;;4.80;2.60;;;;;;;13.55;38.60;98916.13;104975;1260;97480;-72
2023/05/01 07:46:08;;;;;;;3.00;1.90;;;;;;;13.74;38.90;98913.12;105087;1260;97142;-73
2023/05/01 07:48:35;;;;;;;3.80;2.70;;;;;;;13.86;37.34;98913.98;104927;1259;96599;-71
2023/05/01 07:51:04;;;;;;;5.00;2.80;;;;;;;13.91;37.73;98912.15;104623;1273;98302;-75
2023/05/01 07:53:32;;;;;;;2.30;1.60;;;;;;;14.09;37.83;98913.00;104911;1260;97850;-76
2023/05/01 07:56:08;;;;;;;4.60;2.20;;;;;;;14.15;36.70;98916.77;105027;1254;96543;-68
2023/05/01 07:58:36;;;;;;;6.50;2.80;;;;;;;14.35;37.13;98913.13;105119;1259;96740;-69
2023/05/01 08:01:05;;;;;;;3.50;1.90;;;;;;;14.65;36.83;98911.38;105103;1259;96571;-72
2023/05/01 08:03:32;;;;;;;3.10;2.20;;;;;;;14.62;34.89;98914.81;105084;1260;99146;-71
2023/05/01 08:05:59;;;;;;;4.00;2.10;;;;;;;14.78;35.62;98905.66;104970;1260;96607;-72
2023/05/01 08:08:26;;;;;;;5.80;2.20;;;;;;;15.00;35.11;98909.85;105054;1261;96574;-71
2023/05/01 08:10:53;;;;;;;3.30;2.00;;;;;;;15.17;34.40;98906.36;105111;1260;96682;-71
2023/05/01 08:13:20;;;;;;;5.80;2.50;;;;;;;15.12;34.23;98903.91;105160;1259;96569;-71
2023/05/01 08:15:48;;;;;;;4.80;2.40;;;;;;;15.31;34.87;98903.61;105006;1260;97236;-69
2023/05/01 08:18:19;;;;;;;3.20;1.80;;;;;;;15.38;33.70;98904.90;105227;1257;97164;-71
2023/05/01 08:20:47;;;;;;;4.10;2.10;;;;;;;15.52;32.58;98902.73;105206;1260;97467;-72
2023/05/01 08:23:16;;;;;;;5.40;2.30;;;;;;;15.60;33.45;98899.89;105087;1259;97505;-71
2023/05/01 08:25:49;;;;;;;4.80;1.90;;;;;;;15.90;33.41;98887.80;105259;1258;110983;-71
2023/05/01 08:28:19;;;;;;;4.70;2.30;;;;;;;16.02;32.54;98889.07;105192;1260;99167;-71
2023/05/01 08:30:48;;;;;;;3.20;1.90;;;;;;;16.07;32.53;98889.76;104996;1263;107605;-70
2023/05/01 08:33:15;;;;;;;5.20;2.40;;;;;;;16.19;33.22;98884.79;105137;1254;96602;-70
2023/05/01 08:35:42;;;;;;;5.20;1.90;;;;;;;16.28;32.50;98885.15;105197;1259;96577;-71
2023/05/01 08:38:11;;;;;;;3.60;2.30;;;;;;;16.58;33.12;98884.85;104953;1259;96648;-70
2023/05/01 08:40:42;;;;;;;3.70;2.00;;;;;;;16.95;31.15;98887.36;104778;1263;98091;-69
2023/05/01 08:43:11;;;;;;;4.60;1.80;;;;;;;16.92;30.20;98885.23;105114;1259;108733;-71
2023/05/01 08:45:41;;;;;;;4.50;2.10;;;;;;;17.04;30.27;98884.45;105277;1268;96667;-72
2023/05/01 08:48:11;;;;;;;2.80;1.90;;;;;;;17.36;30.72;98884.08;105156;1254;97892;-72
2023/05/01 08:50:44;;;;;;;3.60;2.10;;;;;;;17.70;30.77;98880.94;105055;1260;110121;-72
2023/05/01 08:53:14;;;;;;;3.80;2.20;;;;;;;18.02;29.43;98876.65;105016;1259;99167;-71
2023/05/01 08:55:46;;;;;;;4.30;2.10;;;;;;;18.16;29.86;98873.11;104865;1268;109328;-71
2023/05/01 08:58:16;;;;;;;3.90;2.20;;;;;;;18.19;29.97;98877.38;105008;1259;97733;-71
2023/05/01 09:00:45;;;;;;;3.90;2.10;;;;;;;18.65;30.42;98878.42;105194;1260;96670;-67
2023/05/01 09:03:13;;;;;;;3.60;1.70;;;;;;;18.94;29.09;98875.54;105094;1254;110279;-70
2023/05/01 09:05:41;;;;;;;5.20;2.30;;;;;;;19.09;29.41;98873.45;105318;1258;99434;-70
2023/05/01 09:08:13;;;;;;;3.00;2.10;;;;;;;19.30;29.24;98870.63;105001;1266;108202;-70
2023/05/01 09:10:45;;;;;;;3.60;1.90;;;;;;;19.50;29.77;98866.08;104898;1260;96705;-71
2023/05/01 09:13:12;;;;;;;4.10;2.00;;;;;;;19.75;28.31;98868.48;104911;1268;96488;-73
2023/05/01 09:15:40;;;;;;;6.00;2.40;;;;;;;19.58;27.89;98867.79;105058;1259;110954;-70
2023/05/01 09:18:08;;;;;;;4.70;2.00;;;;;;;19.42;28.67;98861.63;104904;1270;99703;-72
2023/05/01 09:20:37;;;;;;;4.70;2.40;;;;;;;19.44;29.34;98857.85;105092;1267;108013;-72
2023/05/01 09:23:05;;;;;;;3.90;2.10;;;;;;;19.61;29.42;98862.13;105151;1267;97769;-72
2023/05/01 09:25:33;;;;;;;3.60;2.40;;;;;;;19.64;28.76;98861.70;105125;1260;97499;-70
2023/05/01 09:28:03;;;;;;;4.40;2.20;;;;;;;19.90;29.03;98855.31;104774;1260;97857;-72
2023/05/01 09:30:33;;;;;;;3.70;2.40;;;;;;;19.75;29.37;98855.52;105079;1260;99282;-73
2023/05/01 09:33:05;;;;;;;3.80;2.30;;;;;;;19.59;29.57;98857.41;104989;1261;108776;-71
2023/05/01 09:40:01;;;;;;;4.20;2.50;;;;;;;19.78;30.29;98858.76;105013;1267;97155;-70
2023/05/01 09:42:31;;;;;;;4.90;2.50;;;;;;;20.20;30.28;98852.84;104945;1260;110463;-71
2023/05/01 09:45:00;;;;;;;2.70;1.90;;;;;;;20.81;31.56;98849.13;104957;1259;98891;-71
2023/05/01 09:47:32;;;;;;;5.10;2.70;;;;;;;21.25;30.20;98848.23;105134;1269;108934;-67
2023/05/01 09:50:00;;;;;;;3.00;2.40;;;;;;;21.59;30.22;98847.77;105100;1270;97049;-69
2023/05/01 09:52:29;;;;;;;4.60;2.70;;;;;;;21.89;29.11;98844.95;105186;1257;96673;-70
2023/05/01 09:55:16;;;;;;;5.10;2.20;;;;;;;22.33;29.20;98843.48;105010;1262;109977;-69
2023/05/01 09:57:45;;;;;;;3.80;2.30;;;;;;;22.55;28.87;98838.04;105163;1260;98051;-68
2023/05/01 10:00:14;;;;;;;4.60;2.50;;;;;;;22.59;28.49;98840.05;105124;1261;108471;-67
2023/05/01 10:02:44;;;;;;;4.30;2.40;;;;;;;22.89;28.79;98841.07;105617;1263;96767;-70
2023/05/01 10:05:12;;;;;;;3.50;2.40;;;;;;;23.16;27.80;98839.73;104778;1271;96753;-69
2023/05/01 10:07:56;;;;;;;4.10;2.40;;;;;;;23.12;28.12;98838.99;104931;1268;110922;-72
2023/05/01 10:10:26;;;;;;;3.40;2.10;;;;;;;23.21;28.68;98839.34;105183;1257;99257;-72
2023/05/01 10:12:54;;;;;;;3.50;2.20;;;;;;;23.50;28.08;98842.45;104991;1270;108548;-71
2023/05/01 10:15:21;;;;;;;5.20;2.50;;;;;;;23.31;27.83;98838.80;104925;1268;96618;-70
2023/05/01 10:17:53;;;;;;;5.30;3.00;;;;;;;23.38;28.54;98834.02;105022;1260;97848;-70
2023/05/01 10:20:21;;;;;;;3.40;2.50;;;;;;;23.85;29.29;98832.39;104936;1260;110802;-70
2023/05/01 10:22:48;;;;;;;4.10;2.20;;;;;;;24.20;28.05;98825.58;105112;1258;99186;-69
2023/05/01 10:25:16;;;;;;;3.60;2.20;;;;;;;24.02;28.74;98825.52;104965;1269;96661;-69
2023/05/01 10:27:44;;;;;;;3.40;2.50;;;;;;;24.18;28.99;98817.36;105038;1267;96632;-72
2023/05/01 10:30:11;;;;;;;3.30;2.40;;;;;;;24.61;29.43;98814.83;104901;1261;96734;-68
2023/05/01 10:32:41;;;;;;;3.50;2.30;;;;;;;25.29;29.17;98818.61;104992;1259;97874;-69
2023/05/01 10:35:18;;;;;;;3.70;2.70;;;;;;;25.92;28.61;98814.37;105068;1267;97887;-72
2023/05/01 10:37:46;;;;;;;5.80;2.60;;;;;;;26.42;28.02;98813.09;105030;1257;107545;-66
2023/05/01 10:40:38;;;;;;;3.80;1.90;;;;;;;26.69;28.47;98809.09;104961;1273;96645;-68
2023/05/01 10:43:14;;;;;;;4.20;2.80;;;;;;;26.65;27.19;98812.67;104761;1261;97762;-69
2023/05/01 10:45:43;;;;;;;3.30;2.50;;;;;;;26.79;26.79;98807.84;104985;1264;110981;-68
2023/05/01 10:48:11;;;;;;;3.00;2.50;;;;;;;26.82;26.80;98804.09;104729;1271;98736;-68
2023/05/01 10:51:08;;;;;;;3.20;2.60;;;;;;;27.05;26.72;98799.63;105352;1267;108530;-69
2023/05/01 10:53:40;;;;;;;2.90;2.30;;;;;;;27.36;25.81;98800.16;104816;1263;97875;-68
2023/05/01 10:56:29;;;;;;;4.30;2.50;;;;;;;27.55;25.16;98798.09;105003;1260;96564;-67
2023/05/01 10:58:56;;;;;;;2.90;2.40;;;;;;;26.89;24.96;98793.56;104784;1260;110427;-68
2023/05/01 11:01:38;;;;;;;3.10;2.40;;;;;;;26.75;26.59;98793.02;105033;1267;96593;-69
2023/05/01 11:04:18;;;;;;;4.40;2.40;;;;;;;27.05;25.78;98788.07;104862;1254;107698;-69
2023/05/01 11:07:00;;;;;;;3.40;2.60;;;;;;;27.46;26.53;98784.57;104779;1260;97078;-69
2023/05/01 11:09:50;;;;;;;3.30;2.50;;;;;;;27.54;25.82;98775.19;104973;1260;96575;-68
2023/05/01 11:12:45;;;;;;;3.40;2.60;;;;;;;27.60;24.73;98773.31;105005;1260;111369;-68
2023/05/01 11:15:33;;;;;;;4.10;2.90;;;;;;;27.33;24.41;98772.39;105088;1267;98659;-69
2023/05/01 11:18:02;;;;;;;3.80;3.10;;;;;;;27.05;24.42;98765.97;104957;1258;108608;-68
2023/05/01 11:20:35;;;;;;;3.80;2.60;;;;;;;26.89;24.42;98763.05;105067;1278;97753;-68
2023/05/01 11:23:02;;;;;;;3.30;2.20;;;;;;;26.77;25.05;98762.01;104906;1268;96597;-67
2023/05/01 11:25:31;;;;;;;3.30;2.50;;;;;;;26.90;25.03;98764.06;105058;1261;96701;-66
2023/05/01 11:28:01;;;;;;;3.00;2.20;;;;;;;26.74;24.67;98760.27;104733;1262;98005;-69
2023/05/01 11:30:45;;;;;;;3.20;2.30;;;;;;;26.32;25.28;98755.09;104714;1261;107622;-68
2023/05/01 11:33:21;;;;;;;3.40;2.80;;;;;;;25.88;26.39;98749.53;105001;1268;97918;-69
2023/05/01 11:35:57;;;;;;;4.70;3.00;;;;;;;26.38;25.50;98746.36;104881;1267;96690;-68
2023/05/01 11:38:24;;;;;;;5.60;3.00;;;;;;;26.34;26.18;98743.75;105007;1267;110506;-70